createdAt,value
2023-03-02T00:00:20.998Z,99022.81
2023-03-02T00:02:22.910Z,99013.66
2023-03-02T00:04:31.278Z,99022.00
2023-03-02T00:06:35.550Z,99017.22
2023-03-02T00:08:38.461Z,99013.06
2023-03-02T00:10:40.107Z,99015.13
2023-03-02T00:12:44.858Z,99014.50
2023-03-02T00:14:46.740Z,99012.00
2023-03-02T00:16:48.517Z,99009.09
2023-03-02T00:18:50.376Z,99002.00
2023-03-02T00:20:51.939Z,99005.97
2023-03-02T00:22:53.446Z,98999.31
2023-03-02T00:24:55.122Z,98996.00
2023-03-02T00:26:57.139Z,98997.84
2023-03-02T00:28:58.741Z,99000.78
2023-03-02T00:31:03.747Z,98993.28
2023-03-02T00:33:05.309Z,98991.81
2023-03-02T00:35:07.883Z,98995.75
2023-03-02T00:37:09.335Z,98989.13
2023-03-02T00:39:11.019Z,98987.03
2023-03-02T00:41:14.774Z,98989.13
2023-03-02T00:43:19.163Z,98984.97
2023-03-02T00:45:20.649Z,98987.00
2023-03-02T00:47:24.472Z,98983.91
2023-03-02T00:49:26.743Z,98978.69
2023-03-02T00:51:28.311Z,98978.06
2023-03-02T00:53:29.918Z,98976.63
2023-03-02T00:55:31.446Z,98977.03
2023-03-02T00:57:33.021Z,98972.84
2023-03-02T00:59:37.603Z,98968.50
2023-03-02T01:01:57.775Z,98966.63
2023-03-02T01:04:00.885Z,98958.91
2023-03-02T01:06:11.753Z,98959.13
2023-03-02T01:08:13.478Z,98946.88
2023-03-02T01:10:15.355Z,98944.34
2023-03-02T01:12:17.029Z,98948.31
2023-03-02T01:14:18.735Z,98939.59
2023-03-02T01:16:20.394Z,98938.97
2023-03-02T01:18:22.130Z,98937.50
2023-03-02T01:20:23.774Z,98927.94
2023-03-02T01:22:25.797Z,98917.53
2023-03-02T01:24:28.044Z,98930.44
2023-03-02T01:26:29.868Z,98919.19
2023-03-02T01:28:31.611Z,98912.16
2023-03-02T01:30:33.248Z,98918.78
2023-03-02T01:32:35.035Z,98924.19
2023-03-02T01:34:36.508Z,98921.25
2023-03-02T01:36:38.273Z,98919.59
2023-03-02T01:38:39.966Z,98916.25
2023-03-02T01:40:41.785Z,98914.81
2023-03-02T01:42:52.242Z,98917.91
2023-03-02T01:44:57.069Z,98909.19
2023-03-02T01:46:59.098Z,98905.88
2023-03-02T01:49:04.778Z,98901.72
2023-03-02T01:51:27.560Z,98901.28
2023-03-02T01:53:34.270Z,98903.13
2023-03-02T01:55:39.310Z,98907.91
2023-03-02T01:57:49.297Z,98897.50
2023-03-02T01:59:56.228Z,98899.59
2023-03-02T02:02:01.709Z,98888.16
2023-03-02T02:04:04.452Z,98893.97
2023-03-02T02:06:21.843Z,98893.34
2023-03-02T02:08:24.068Z,98897.06
2023-03-02T02:10:26.115Z,98893.13
2023-03-02T02:12:28.020Z,98889.78
2023-03-02T02:14:29.667Z,98890.81
2023-03-02T02:16:33.597Z,98884.78
2023-03-02T02:18:39.097Z,98884.41
2023-03-02T02:20:45.489Z,98891.22
2023-03-02T02:22:57.035Z,98887.88
2023-03-02T02:25:03.390Z,98876.69
2023-03-02T02:27:05.118Z,98875.63
2023-03-02T02:29:14.475Z,98875.22
2023-03-02T02:31:24.859Z,98875.63
2023-03-02T02:33:27.427Z,98876.66
2023-03-02T02:35:31.462Z,98880.56
2023-03-02T02:37:43.877Z,98878.09
2023-03-02T02:39:48.922Z,98880.78
2023-03-02T02:41:54.660Z,98879.31
2023-03-02T02:43:56.656Z,98883.88
2023-03-02T02:46:00.004Z,98878.88
2023-03-02T02:48:01.825Z,98879.28
2023-03-02T02:50:04.071Z,98879.28
2023-03-02T02:52:07.020Z,98869.94
2023-03-02T02:54:14.658Z,98870.97
2023-03-02T02:56:18.493Z,98872.63
2023-03-02T02:58:48.510Z,98869.31
2023-03-02T03:00:50.430Z,98867.00
2023-03-02T03:03:00.753Z,98881.91
2023-03-02T03:05:05.338Z,98879.41
2023-03-02T03:07:12.957Z,98878.59
2023-03-02T03:09:14.710Z,98877.75
2023-03-02T03:11:31.182Z,98880.44
2023-03-02T03:13:33.380Z,98881.28
2023-03-02T03:15:35.037Z,98873.19
2023-03-02T03:17:36.579Z,98873.19
2023-03-02T03:19:43.519Z,98879.63
2023-03-02T03:21:45.878Z,98878.97
2023-03-02T03:23:49.013Z,98869.41
2023-03-02T03:25:51.213Z,98879.41
2023-03-02T03:27:52.806Z,98871.72
2023-03-02T03:29:55.453Z,98871.06
2023-03-02T03:31:58.259Z,98869.19
2023-03-02T03:34:01.650Z,98872.50
2023-03-02T03:36:08.117Z,98875.41
2023-03-02T03:38:10.596Z,98874.34
2023-03-02T03:40:12.402Z,98870.00
2023-03-02T03:42:18.546Z,98871.84
2023-03-02T03:44:22.214Z,98866.84
2023-03-02T03:46:25.054Z,98868.94
2023-03-02T03:48:29.745Z,98868.94
2023-03-02T03:50:31.586Z,98865.59
2023-03-02T03:52:36.176Z,98863.94
2023-03-02T03:54:44.478Z,98870.38
2023-03-02T03:56:48.623Z,98870.75
2023-03-02T03:58:53.900Z,98859.34
2023-03-02T04:00:55.826Z,98867.44
2023-03-02T04:02:57.362Z,98866.78
2023-03-02T04:05:06.406Z,98865.13
2023-03-02T04:07:08.669Z,98856.81
2023-03-02T04:09:12.313Z,98855.97
2023-03-02T04:11:14.722Z,98870.28
2023-03-02T04:13:16.401Z,98870.66
2023-03-02T04:15:18.244Z,98864.66
2023-03-02T04:17:22.109Z,98867.34
2023-03-02T04:19:24.810Z,98865.66
2023-03-02T04:21:30.884Z,98860.50
2023-03-02T04:23:32.282Z,98866.06
2023-03-02T04:25:35.901Z,98859.84
2023-03-02T04:27:50.174Z,98860.03
2023-03-02T04:29:53.057Z,98856.50
2023-03-02T04:31:55.678Z,98859.63
2023-03-02T04:33:59.144Z,98860.41
2023-03-02T04:36:00.998Z,98864.16
2023-03-02T04:38:03.298Z,98848.00
2023-03-02T04:40:06.545Z,98856.25
2023-03-02T04:42:08.065Z,98856.69
2023-03-02T04:44:09.605Z,98858.72
2023-03-02T04:46:19.635Z,98862.00
2023-03-02T04:48:22.056Z,98865.31
2023-03-02T04:50:25.005Z,98864.94
2023-03-02T04:52:26.698Z,98862.88
2023-03-02T04:54:28.481Z,98863.28
2023-03-02T04:56:33.453Z,98861.63
2023-03-02T04:58:35.177Z,98857.09
2023-03-02T05:00:36.948Z,98855.69
2023-03-02T05:02:40.758Z,98848.84
2023-03-02T05:04:42.899Z,98852.56
2023-03-02T05:06:45.093Z,98846.31
2023-03-02T05:08:46.658Z,98853.19
2023-03-02T05:10:48.497Z,98847.63
2023-03-02T05:13:02.254Z,98843.03
2023-03-02T05:15:04.170Z,98850.09
2023-03-02T05:17:05.752Z,98842.84
2023-03-02T05:19:09.939Z,98845.72
2023-03-02T05:21:12.407Z,98845.34
2023-03-02T05:23:25.317Z,98839.78
2023-03-02T05:25:29.524Z,98847.66
2023-03-02T05:27:31.329Z,98849.13
2023-03-02T05:29:32.957Z,98843.34
2023-03-02T05:31:38.904Z,98857.44
2023-03-02T05:33:40.460Z,98857.44
2023-03-02T05:35:42.593Z,98853.72
2023-03-02T05:37:45.076Z,98850.59
2023-03-02T05:39:46.830Z,98852.91
2023-03-02T05:41:48.682Z,98850.22
2023-03-02T05:43:51.178Z,98855.00
2023-03-02T05:45:52.911Z,98853.78
2023-03-02T05:47:54.806Z,98843.66
2023-03-02T05:49:56.504Z,98845.13
2023-03-02T05:51:58.291Z,98854.84
2023-03-02T05:54:00.241Z,98854.66
2023-03-02T05:56:02.093Z,98860.06
2023-03-02T05:58:09.260Z,98857.16
2023-03-02T06:00:12.935Z,98858.00
2023-03-02T06:02:14.719Z,98852.59
2023-03-02T06:04:16.902Z,98864.41
2023-03-02T06:06:19.901Z,98866.91
2023-03-02T06:08:23.353Z,98861.53
2023-03-02T06:10:25.126Z,98868.78
2023-03-02T06:12:27.035Z,98868.38
2023-03-02T06:14:28.608Z,98865.69
2023-03-02T06:16:31.856Z,98857.78
2023-03-02T06:18:34.488Z,98868.94
2023-03-02T06:20:39.545Z,98870.00
2023-03-02T06:22:45.148Z,98875.19
2023-03-02T06:24:46.848Z,98877.69
2023-03-02T06:26:48.451Z,98870.63
2023-03-02T06:28:53.992Z,98875.81
2023-03-02T06:30:55.874Z,98883.72
2023-03-02T06:32:57.548Z,98885.81
2023-03-02T06:34:59.394Z,98894.53
2023-03-02T06:37:00.970Z,98897.66
2023-03-02T06:39:02.591Z,98895.19
2023-03-02T06:41:04.438Z,98892.28
2023-03-02T06:43:06.148Z,98891.50
2023-03-02T06:45:08.968Z,98898.16
2023-03-02T06:47:10.452Z,98900.28
2023-03-02T06:49:14.120Z,98893.22
2023-03-02T06:51:16.415Z,98890.56
2023-03-02T06:53:22.984Z,98898.06
2023-03-02T06:55:24.789Z,98900.34
2023-03-02T06:57:33.569Z,98897.25
2023-03-02T06:59:37.518Z,98895.81
2023-03-02T07:01:39.314Z,98893.16
2023-03-02T07:03:41.030Z,98900.03
2023-03-02T07:05:44.566Z,98899.00
2023-03-02T07:07:50.772Z,98888.66
2023-03-02T07:09:52.640Z,98895.72
2023-03-02T07:11:57.803Z,98887.63
2023-03-02T07:14:03.138Z,98891.16
2023-03-02T07:16:09.901Z,98890.78
2023-03-02T07:18:11.751Z,98888.91
2023-03-02T07:20:16.439Z,98887.44
2023-03-02T07:22:18.027Z,98880.59
2023-03-02T07:24:20.534Z,98877.47
2023-03-02T07:26:22.528Z,98878.63
2023-03-02T07:28:25.418Z,98882.56
2023-03-02T07:30:26.886Z,98870.78
2023-03-02T07:32:28.582Z,98872.13
2023-03-02T07:34:33.594Z,98869.69
2023-03-02T07:36:35.595Z,98870.78
2023-03-02T07:38:40.542Z,98865.81
2023-03-02T07:40:43.333Z,98866.84
2023-03-02T07:42:44.923Z,98864.53
2023-03-02T07:44:49.291Z,98864.72
2023-03-02T07:46:50.963Z,98863.63
2023-03-02T07:48:54.162Z,98862.13
2023-03-02T07:51:03.255Z,98867.69
2023-03-02T07:53:04.728Z,98865.88
2023-03-02T07:55:06.683Z,98867.00
2023-03-02T07:57:08.495Z,98866.09
2023-03-02T07:59:14.959Z,98865.41
2023-03-02T08:01:16.832Z,98858.09
2023-03-02T08:03:18.568Z,98857.03
2023-03-02T08:05:23.112Z,98857.50
2023-03-02T08:07:24.900Z,98859.88
2023-03-02T08:09:26.573Z,98859.16
2023-03-02T08:11:28.173Z,98856.78
2023-03-02T08:13:30.069Z,98857.38
2023-03-02T08:15:31.740Z,98856.88
2023-03-02T08:17:33.350Z,98856.66
2023-03-02T08:19:35.219Z,98860.22
2023-03-02T08:21:36.980Z,98852.84
2023-03-02T08:23:38.697Z,98851.78
2023-03-02T08:25:42.926Z,98854.53
2023-03-02T08:27:45.955Z,98854.28
2023-03-02T08:29:47.573Z,98844.47
2023-03-02T08:31:49.159Z,98849.66
2023-03-02T08:33:51.417Z,98837.13
2023-03-02T08:36:11.716Z,98852.97
2023-03-02T08:38:13.230Z,98844.31
2023-03-02T08:40:15.922Z,98848.47
2023-03-02T08:42:20.108Z,98842.78
2023-03-02T08:44:22.345Z,98848.09
2023-03-02T08:46:24.097Z,98847.16
2023-03-02T08:48:27.239Z,98840.53
2023-03-02T08:50:29.143Z,98846.88
2023-03-02T08:52:34.152Z,98841.53
2023-03-02T08:54:36.853Z,98841.66
2023-03-02T08:56:40.129Z,98828.47
2023-03-02T08:58:41.767Z,98838.41
2023-03-02T09:00:45.143Z,98829.59
2023-03-02T09:02:46.962Z,98827.03
2023-03-02T09:04:48.545Z,98828.06
2023-03-02T09:06:50.197Z,98824.41
2023-03-02T09:08:52.103Z,98817.25
2023-03-02T09:10:53.971Z,98810.63
2023-03-02T09:12:55.506Z,98804.59
2023-03-02T09:14:57.361Z,98806.81
2023-03-02T09:16:59.156Z,98804.94
2023-03-02T09:19:00.920Z,98804.81
2023-03-02T09:21:04.830Z,98805.41
2023-03-02T09:23:06.458Z,98811.81
2023-03-02T09:25:08.365Z,98812.91
2023-03-02T09:27:10.126Z,98808.34
2023-03-02T09:29:11.813Z,98800.63
2023-03-02T09:31:13.529Z,98807.41
2023-03-02T09:33:15.178Z,98811.38
2023-03-02T09:35:16.991Z,98800.56
2023-03-02T09:37:18.615Z,98809.66
2023-03-02T09:39:20.229Z,98804.22
2023-03-02T09:41:21.845Z,98805.84
2023-03-02T09:43:44.320Z,98797.88
2023-03-02T09:45:51.323Z,98799.41
2023-03-02T09:48:15.307Z,98796.53
2023-03-02T09:50:32.066Z,98795.56
2023-03-02T09:52:40.345Z,98790.19
2023-03-02T09:54:42.852Z,98785.91
2023-03-02T09:57:00.242Z,98783.50
2023-03-02T09:59:07.124Z,98780.31
2023-03-02T10:01:16.827Z,98779.78
2023-03-02T10:03:45.687Z,98784.25
2023-03-02T10:05:56.284Z,98782.38
2023-03-02T10:07:59.385Z,98779.44
2023-03-02T10:10:36.516Z,98775.41
2023-03-02T10:13:01.304Z,98776.81
2023-03-02T10:15:54.414Z,98779.06
2023-03-02T10:18:11.079Z,98773.31
2023-03-02T10:20:24.238Z,98769.75
2023-03-02T10:22:35.006Z,98769.00
2023-03-02T10:24:44.609Z,98765.78
2023-03-02T10:26:52.046Z,98766.13
2023-03-02T10:29:01.466Z,98764.84
2023-03-02T10:31:14.613Z,98763.50
2023-03-02T10:33:19.027Z,98761.38
2023-03-02T10:35:23.379Z,98761.50
2023-03-02T10:37:30.031Z,98771.03
2023-03-02T10:39:31.679Z,98769.19
2023-03-02T10:41:40.690Z,98757.09
2023-03-02T10:43:51.636Z,98762.72
2023-03-02T10:46:07.413Z,98757.31
2023-03-02T10:48:11.918Z,98758.72
2023-03-02T10:50:23.498Z,98757.19
2023-03-02T10:52:27.905Z,98756.13
2023-03-02T10:54:31.793Z,98755.91
2023-03-02T10:56:34.438Z,98755.16
2023-03-02T10:58:36.420Z,98763.56
2023-03-02T11:00:38.073Z,98746.50
2023-03-02T11:02:50.871Z,98748.03
2023-03-02T11:04:58.320Z,98743.97
2023-03-02T11:07:24.116Z,98746.66
2023-03-02T11:11:28.907Z,98736.13
2023-03-02T11:13:36.866Z,98738.78
2023-03-02T11:15:47.105Z,98730.31
2023-03-02T11:17:56.882Z,98731.03
2023-03-02T11:19:58.685Z,98731.72
2023-03-02T11:22:32.924Z,98735.47
2023-03-02T11:24:53.519Z,98727.34
2023-03-02T11:26:59.365Z,98722.78
2023-03-02T11:29:13.111Z,98725.13
2023-03-02T11:31:26.566Z,98723.34
2023-03-02T11:33:37.750Z,98721.25
2023-03-02T11:35:54.385Z,98723.06
2023-03-02T11:38:02.390Z,98720.97
2023-03-02T11:40:22.671Z,98714.78
2023-03-02T11:42:37.610Z,98711.34
2023-03-02T11:44:39.718Z,98716.00
2023-03-02T11:46:45.819Z,98707.31
2023-03-02T11:48:50.798Z,98712.25
2023-03-02T11:50:55.497Z,98719.44
2023-03-02T11:53:03.672Z,98709.13
2023-03-02T11:55:22.443Z,98707.19
2023-03-02T11:57:38.630Z,98697.25
2023-03-02T11:59:41.381Z,98695.44
2023-03-02T12:01:47.979Z,98695.44
2023-03-02T12:03:50.497Z,98696.75
2023-03-02T12:05:51.981Z,98706.41
2023-03-02T12:08:02.585Z,98690.22
2023-03-02T12:10:24.109Z,98690.41
2023-03-02T12:12:25.640Z,98696.63
2023-03-02T12:14:36.631Z,98692.06
2023-03-02T12:16:43.703Z,98696.16
2023-03-02T12:18:52.801Z,98683.56
2023-03-02T12:21:16.065Z,98689.63
2023-03-02T12:23:26.423Z,98686.53
2023-03-02T12:25:38.192Z,98685.56
2023-03-02T12:27:42.105Z,98688.19
2023-03-02T12:29:47.120Z,98686.72
2023-03-02T12:31:52.073Z,98669.41
2023-03-02T12:33:53.744Z,98680.66
2023-03-02T12:36:11.317Z,98673.50
2023-03-02T12:38:26.428Z,98656.13
2023-03-02T12:40:59.615Z,98660.22
2023-03-02T12:43:03.911Z,98661.22
2023-03-02T12:45:17.484Z,98661.88
2023-03-02T12:47:27.991Z,98664.53
2023-03-02T12:49:42.104Z,98656.81
2023-03-02T12:51:58.630Z,98641.63
2023-03-02T12:54:04.206Z,98649.81
2023-03-02T12:56:08.959Z,98644.56
2023-03-02T12:58:23.510Z,98641.59
2023-03-02T13:00:30.274Z,98639.00
2023-03-02T13:02:35.096Z,98638.00
2023-03-02T13:04:36.875Z,98638.16
2023-03-02T13:06:39.679Z,98629.66
2023-03-02T13:08:44.668Z,98629.31
2023-03-02T13:10:52.194Z,98633.72
2023-03-02T13:12:56.379Z,98630.25
2023-03-02T13:15:01.704Z,98635.16
2023-03-02T13:17:03.634Z,98625.03
2023-03-02T13:19:14.830Z,98625.66
2023-03-02T13:21:18.865Z,98621.06
2023-03-02T13:23:20.912Z,98622.00
2023-03-02T13:25:28.880Z,98622.56
2023-03-02T13:27:31.295Z,98615.97
2023-03-02T13:29:33.626Z,98623.16
2023-03-02T13:31:35.452Z,98625.16
2023-03-02T13:33:45.004Z,98621.88
2023-03-02T13:35:47.985Z,98610.41
2023-03-02T13:38:04.941Z,98614.69
2023-03-02T13:40:31.922Z,98613.03
2023-03-02T13:42:40.769Z,98602.88
2023-03-02T13:44:42.967Z,98606.50
2023-03-02T13:46:46.155Z,98606.00
2023-03-02T13:49:13.712Z,98606.69
2023-03-02T13:51:18.048Z,98606.19
2023-03-02T13:53:20.279Z,98596.88
2023-03-02T13:55:23.083Z,98603.09
2023-03-02T13:57:32.879Z,98587.06
2023-03-02T13:59:36.670Z,98588.22
2023-03-02T14:01:38.492Z,98600.00
2023-03-02T14:03:40.148Z,98585.94
2023-03-02T14:05:41.868Z,98591.03
2023-03-02T14:07:43.452Z,98589.25
2023-03-02T14:09:45.323Z,98588.75
2023-03-02T14:11:50.918Z,98588.59
2023-03-02T14:13:54.852Z,98590.72
2023-03-02T14:15:57.273Z,98583.06
2023-03-02T14:17:59.035Z,98578.81
2023-03-02T14:20:00.883Z,98581.78
2023-03-02T14:22:02.798Z,98578.69
2023-03-02T14:24:04.632Z,98580.00
2023-03-02T14:26:26.004Z,98580.78
2023-03-02T14:28:27.665Z,98582.13
2023-03-02T14:30:29.237Z,98575.44
2023-03-02T14:32:31.313Z,98571.81
2023-03-02T14:34:36.123Z,98569.53
2023-03-02T14:36:39.251Z,98574.78
2023-03-02T14:38:40.902Z,98571.16
2023-03-02T14:40:42.867Z,98574.44
2023-03-02T14:42:44.635Z,98569.69
2023-03-02T14:44:48.683Z,98561.84
2023-03-02T14:46:51.264Z,98571.78
2023-03-02T14:48:52.800Z,98573.41
2023-03-02T14:50:54.641Z,98571.91
2023-03-02T14:52:58.088Z,98570.41
2023-03-02T14:55:07.162Z,98564.38
2023-03-02T14:57:25.518Z,98572.66
2023-03-02T14:59:27.084Z,98570.03
2023-03-02T15:01:28.817Z,98564.97
2023-03-02T15:03:30.630Z,98558.25
2023-03-02T15:05:32.585Z,98569.28
2023-03-02T15:07:34.290Z,98564.50
2023-03-02T15:09:35.835Z,98566.56
2023-03-02T15:11:37.565Z,98564.59
2023-03-02T15:13:39.312Z,98568.97
2023-03-02T15:15:43.172Z,98562.53
2023-03-02T15:17:48.152Z,98577.47
2023-03-02T15:19:49.722Z,98572.19
2023-03-02T15:21:52.900Z,98576.53
2023-03-02T15:23:54.968Z,98568.97
2023-03-02T15:26:04.321Z,98569.22
2023-03-02T15:28:05.827Z,98568.84
2023-03-02T15:30:08.058Z,98574.78
2023-03-02T15:32:09.668Z,98570.81
2023-03-02T15:34:12.153Z,98578.72
2023-03-02T15:36:14.249Z,98579.16
2023-03-02T15:38:15.825Z,98589.03
2023-03-02T15:40:17.527Z,98583.91
2023-03-02T15:42:19.066Z,98577.97
2023-03-02T15:44:24.111Z,98569.63
2023-03-02T15:46:26.974Z,98578.63
2023-03-02T15:48:29.872Z,98573.00
2023-03-02T15:50:31.729Z,98578.44
2023-03-02T15:52:33.324Z,98584.66
2023-03-02T15:54:38.263Z,98575.75
2023-03-02T15:56:48.307Z,98581.97
2023-03-02T15:58:49.981Z,98583.28
2023-03-02T16:00:53.911Z,98583.69
2023-03-02T16:02:55.721Z,98584.72
2023-03-02T16:04:57.563Z,98584.59
2023-03-02T16:07:01.980Z,98583.94
2023-03-02T16:09:06.956Z,98593.22
2023-03-02T16:11:10.342Z,98582.06
2023-03-02T16:13:16.489Z,98590.19
2023-03-02T16:15:18.393Z,98592.78
2023-03-02T16:17:20.208Z,98591.84
2023-03-02T16:19:22.022Z,98589.75
2023-03-02T16:21:25.664Z,98595.94
2023-03-02T16:23:27.322Z,98601.03
2023-03-02T16:25:29.113Z,98599.44
2023-03-02T16:27:30.829Z,98597.91
2023-03-02T16:29:35.263Z,98604.91
2023-03-02T16:31:43.089Z,98607.22
2023-03-02T16:33:45.468Z,98609.78
2023-03-02T16:35:49.249Z,98607.41
2023-03-02T16:37:51.189Z,98617.16
2023-03-02T16:39:52.719Z,98616.63
2023-03-02T16:41:54.477Z,98622.19
2023-03-02T16:44:00.846Z,98624.50
2023-03-02T16:46:02.508Z,98619.03
2023-03-02T16:48:05.434Z,98623.78
2023-03-02T16:50:10.401Z,98627.44
2023-03-02T16:52:12.453Z,98627.47
2023-03-02T16:54:16.844Z,98634.16
2023-03-02T16:56:18.418Z,98634.22
2023-03-02T16:58:20.452Z,98636.19
2023-03-02T17:00:23.185Z,98632.66
2023-03-02T17:02:24.912Z,98644.81
2023-03-02T17:04:26.521Z,98646.00
2023-03-02T17:06:28.232Z,98645.50
2023-03-02T17:08:29.949Z,98656.03
2023-03-02T17:10:31.656Z,98657.19
2023-03-02T17:12:33.510Z,98657.75
2023-03-02T17:14:34.929Z,98658.94
2023-03-02T17:16:36.806Z,98668.38
2023-03-02T17:18:38.812Z,98666.22
2023-03-02T17:20:41.376Z,98659.41
2023-03-02T17:22:43.095Z,98664.66
2023-03-02T17:24:44.907Z,98669.97
2023-03-02T17:26:47.178Z,98669.19
2023-03-02T17:28:49.114Z,98678.84
2023-03-02T17:30:50.790Z,98676.38
2023-03-02T17:32:52.460Z,98686.31
2023-03-02T17:34:54.095Z,98684.97
2023-03-02T17:36:55.628Z,98679.78
2023-03-02T17:38:57.238Z,98684.69
2023-03-02T17:41:02.603Z,98693.25
2023-03-02T17:43:04.116Z,98685.03
2023-03-02T17:45:06.409Z,98688.88
2023-03-02T17:47:08.422Z,98704.53
2023-03-02T17:49:10.108Z,98692.75
2023-03-02T17:51:14.689Z,98708.41
2023-03-02T17:53:16.299Z,98704.53
2023-03-02T17:55:18.478Z,98707.88
2023-03-02T17:57:22.539Z,98711.41
2023-03-02T17:59:27.199Z,98712.78
2023-03-02T18:01:29.768Z,98720.75
2023-03-02T18:03:31.608Z,98715.50
2023-03-02T18:05:33.190Z,98715.78
2023-03-02T18:07:35.125Z,98724.84
2023-03-02T18:09:36.685Z,98720.97
2023-03-02T18:11:38.592Z,98723.13
2023-03-02T18:13:40.408Z,98732.47
2023-03-02T18:15:42.403Z,98732.69
2023-03-02T18:17:46.156Z,98733.22
2023-03-02T18:19:50.690Z,98739.22
2023-03-02T18:21:52.320Z,98735.34
2023-03-02T18:23:54.996Z,98741.34
2023-03-02T18:25:56.742Z,98751.19
2023-03-02T18:27:58.418Z,98747.59
2023-03-02T18:30:00.188Z,98756.59
2023-03-02T18:32:01.944Z,98754.91
2023-03-02T18:34:04.203Z,98760.63
2023-03-02T18:36:06.359Z,98764.72
2023-03-02T18:38:08.103Z,98765.53
2023-03-02T18:40:11.279Z,98764.38
2023-03-02T18:42:12.900Z,98770.06
2023-03-02T18:44:14.503Z,98777.44
2023-03-02T18:46:27.642Z,98767.50
2023-03-02T18:48:29.458Z,98780.09
2023-03-02T18:50:31.211Z,98778.38
2023-03-02T18:52:32.947Z,98771.78
2023-03-02T18:54:34.728Z,98775.03
2023-03-02T18:56:38.802Z,98778.81
2023-03-02T19:01:30.474Z,98783.31
2023-03-02T19:04:07.757Z,98781.94
2023-03-02T19:06:26.674Z,98797.72
2023-03-02T19:08:36.468Z,98801.50
2023-03-02T19:10:42.913Z,98795.97
2023-03-02T19:12:53.716Z,98796.75
2023-03-02T19:15:06.418Z,98794.47
2023-03-02T19:17:11.330Z,98800.44
2023-03-02T19:19:14.023Z,98805.59
2023-03-02T19:21:16.652Z,98802.25
2023-03-02T19:23:18.734Z,98810.16
2023-03-02T19:25:20.952Z,98804.03
2023-03-02T19:27:22.530Z,98813.31
2023-03-02T19:29:24.364Z,98818.72
2023-03-02T19:31:27.720Z,98822.22
2023-03-02T19:33:30.140Z,98826.53
2023-03-02T19:35:32.259Z,98818.28
2023-03-02T19:37:34.100Z,98826.16
2023-03-02T19:39:35.672Z,98826.91
2023-03-02T19:41:37.327Z,98820.56
2023-03-02T19:43:40.477Z,98824.03
2023-03-02T19:45:42.436Z,98824.81
2023-03-02T19:47:45.376Z,98827.22
2023-03-02T19:49:47.166Z,98827.97
2023-03-02T19:51:48.854Z,98825.38
2023-03-02T19:53:50.650Z,98824.25
2023-03-02T19:55:52.718Z,98821.41
2023-03-02T19:58:00.200Z,98816.47
2023-03-02T20:00:02.054Z,98835.53
2023-03-02T20:02:06.186Z,98833.50
2023-03-02T20:04:10.904Z,98839.16
2023-03-02T20:06:12.803Z,98847.84
2023-03-02T20:08:16.887Z,98841.22
2023-03-02T20:10:35.673Z,98845.78
2023-03-02T20:12:37.738Z,98842.97
2023-03-02T20:14:40.845Z,98842.03
2023-03-02T20:16:42.704Z,98850.97
2023-03-02T20:18:45.534Z,98843.53
2023-03-02T20:20:48.612Z,98854.84
2023-03-02T20:22:50.705Z,98857.22
2023-03-02T20:24:52.686Z,98861.53
2023-03-02T20:26:54.650Z,98855.66
2023-03-02T20:28:58.290Z,98861.00
2023-03-02T20:31:04.301Z,98857.59
2023-03-02T20:33:10.762Z,98857.50
2023-03-02T20:35:12.886Z,98863.69
2023-03-02T20:37:15.758Z,98864.66
2023-03-02T20:39:23.357Z,98866.22
2023-03-02T20:41:31.140Z,98860.69
2023-03-02T20:43:33.453Z,98867.09
2023-03-02T20:45:35.764Z,98872.44
2023-03-02T20:47:37.484Z,98870.69
2023-03-02T20:49:39.334Z,98869.19
2023-03-02T20:51:45.488Z,98858.97
2023-03-02T20:53:47.258Z,98870.81
2023-03-02T20:55:49.481Z,98865.25
2023-03-02T20:57:55.263Z,98862.91
2023-03-02T20:59:56.961Z,98865.28
2023-03-02T21:01:58.607Z,98865.16
2023-03-02T21:04:00.419Z,98866.97
2023-03-02T21:06:03.235Z,98868.75
2023-03-02T21:08:04.882Z,98853.13
2023-03-02T21:10:11.597Z,98865.22
2023-03-02T21:12:13.404Z,98867.19
2023-03-02T21:14:18.515Z,98858.31
2023-03-02T21:16:27.688Z,98869.69
2023-03-02T21:18:29.359Z,98863.53
2023-03-02T21:20:33.253Z,98865.53
2023-03-02T21:22:34.994Z,98863.53
2023-03-02T21:24:36.849Z,98867.19
2023-03-02T21:26:39.213Z,98865.41
2023-03-02T21:28:44.945Z,98865.28
2023-03-02T21:30:46.833Z,98861.63
2023-03-02T21:32:48.814Z,98864.22
2023-03-02T21:34:54.248Z,98855.91
2023-03-02T21:36:59.841Z,98858.72
2023-03-02T21:39:02.287Z,98864.03
2023-03-02T21:41:04.078Z,98858.69
2023-03-02T21:43:06.205Z,98860.22
2023-03-02T21:45:12.413Z,98851.13
2023-03-02T21:47:14.133Z,98858.06
2023-03-02T21:49:18.800Z,98855.44
2023-03-02T21:51:21.615Z,98860.28
2023-03-02T21:53:23.521Z,98864.97
2023-03-02T21:55:33.443Z,98866.50
2023-03-02T21:57:35.716Z,98869.31
2023-03-02T21:59:37.463Z,98865.16
2023-03-02T22:01:39.595Z,98863.94
2023-03-02T22:03:42.228Z,98864.00
2023-03-02T22:05:44.171Z,98863.41
2023-03-02T22:07:46.991Z,98853.22
2023-03-02T22:09:48.672Z,98863.13
2023-03-02T22:11:50.569Z,98863.78
2023-03-02T22:13:58.382Z,98859.28
2023-03-02T22:16:20.662Z,98863.72
2023-03-02T22:18:25.150Z,98859.59
2023-03-02T22:20:27.085Z,98853.78
2023-03-02T22:22:31.787Z,98856.97
2023-03-02T22:24:33.760Z,98856.19
2023-03-02T22:26:47.325Z,98860.66
2023-03-02T22:28:49.240Z,98862.97
2023-03-02T22:30:52.639Z,98865.28
2023-03-02T22:32:54.303Z,98866.81
2023-03-02T22:35:02.661Z,98868.78
2023-03-02T22:37:17.625Z,98866.94
2023-03-02T22:39:33.689Z,98868.22
2023-03-02T22:41:35.289Z,98877.63
2023-03-02T22:43:36.861Z,98878.50
2023-03-02T22:45:39.952Z,98875.44
2023-03-02T22:47:48.208Z,98875.03
2023-03-02T22:49:56.649Z,98879.25
2023-03-02T22:52:11.343Z,98869.88
2023-03-02T22:54:21.531Z,98872.44
2023-03-02T22:56:30.109Z,98870.19
2023-03-02T22:58:47.397Z,98864.81
2023-03-02T23:00:49.401Z,98866.91
2023-03-02T23:03:01.339Z,98867.59
2023-03-02T23:05:28.436Z,98867.41
2023-03-02T23:07:30.100Z,98870.56
2023-03-02T23:09:35.710Z,98872.06
2023-03-02T23:11:39.584Z,98880.63
2023-03-02T23:13:41.320Z,98879.59
2023-03-02T23:15:43.649Z,98865.66
2023-03-02T23:17:48.306Z,98879.66
2023-03-02T23:19:51.486Z,98877.41
2023-03-02T23:21:53.685Z,98865.31
2023-03-02T23:23:56.077Z,98874.50
2023-03-02T23:25:57.716Z,98867.84
2023-03-02T23:27:59.364Z,98872.66
2023-03-02T23:30:01.586Z,98882.66
2023-03-02T23:32:04.162Z,98870.63
2023-03-02T23:34:06.373Z,98878.31
2023-03-02T23:36:16.968Z,98861.91
2023-03-02T23:38:21.981Z,98866.72
2023-03-02T23:40:23.611Z,98864.44
2023-03-02T23:42:25.467Z,98865.94
2023-03-02T23:44:27.113Z,98869.06
2023-03-02T23:46:29.833Z,98868.66
2023-03-02T23:48:32.483Z,98862.84
2023-03-02T23:50:36.516Z,98875.13
2023-03-02T23:52:39.555Z,98869.34
2023-03-02T23:54:43.405Z,98862.50
2023-03-02T23:56:48.454Z,98861.03
2023-03-02T23:58:50.228Z,98861.25
